sensor_id;sensor_type;location;lat;lon;timestamp;P1;durP1;ratioP1;P2;durP2;ratioP2
26822;SDS011;14852;51.910;8.878;2022-12-18T00:01:03;23.02;;;13.80;;
26822;SDS011;14852;51.910;8.878;2022-12-18T00:03:32;21.48;;;13.82;;
26822;SDS011;14852;51.910;8.878;2022-12-18T00:05:59;22.63;;;14.68;;
26822;SDS011;14852;51.910;8.878;2022-12-18T00:08:24;24.00;;;13.90;;
26822;SDS011;14852;51.910;8.878;2022-12-18T00:10:52;28.45;;;15.70;;
26822;SDS011;14852;51.910;8.878;2022-12-18T00:13:18;27.00;;;18.80;;
26822;SDS011;14852;51.910;8.878;2022-12-18T00:15:44;23.77;;;14.48;;
26822;SDS011;14852;51.910;8.878;2022-12-18T00:18:09;24.70;;;15.63;;
26822;SDS011;14852;51.910;8.878;2022-12-18T00:20:36;32.58;;;16.95;;
26822;SDS011;14852;51.910;8.878;2022-12-18T00:23:04;26.92;;;16.40;;
26822;SDS011;14852;51.910;8.878;2022-12-18T00:25:32;28.55;;;17.35;;
26822;SDS011;14852;51.910;8.878;2022-12-18T00:28:00;25.42;;;16.17;;
26822;SDS011;14852;51.910;8.878;2022-12-18T00:30:26;29.98;;;17.60;;
26822;SDS011;14852;51.910;8.878;2022-12-18T00:32:53;23.15;;;14.35;;
26822;SDS011;14852;51.910;8.878;2022-12-18T00:35:19;24.60;;;15.02;;
26822;SDS011;14852;51.910;8.878;2022-12-18T00:37:45;28.45;;;16.55;;
26822;SDS011;14852;51.910;8.878;2022-12-18T00:40:11;25.73;;;14.82;;
26822;SDS011;14852;51.910;8.878;2022-12-18T00:42:37;21.20;;;14.60;;
26822;SDS011;14852;51.910;8.878;2022-12-18T00:45:23;28.00;;;16.27;;
26822;SDS011;14852;51.910;8.878;2022-12-18T00:47:55;26.55;;;13.40;;
26822;SDS011;14852;51.910;8.878;2022-12-18T00:50:22;27.00;;;15.77;;
26822;SDS011;14852;51.910;8.878;2022-12-18T00:52:49;26.00;;;15.95;;
26822;SDS011;14852;51.910;8.878;2022-12-18T00:55:16;24.35;;;14.70;;
26822;SDS011;14852;51.910;8.878;2022-12-18T00:57:42;23.92;;;14.90;;
26822;SDS011;14852;51.910;8.878;2022-12-18T01:00:10;29.08;;;16.05;;
26822;SDS011;14852;51.910;8.878;2022-12-18T01:02:40;28.50;;;16.25;;
26822;SDS011;14852;51.910;8.878;2022-12-18T01:05:08;32.47;;;16.60;;
26822;SDS011;14852;51.910;8.878;2022-12-18T01:07:36;23.38;;;16.67;;
26822;SDS011;14852;51.910;8.878;2022-12-18T01:10:02;26.63;;;15.07;;
26822;SDS011;14852;51.910;8.878;2022-12-18T01:12:29;25.17;;;15.00;;
26822;SDS011;14852;51.910;8.878;2022-12-18T01:14:55;26.08;;;14.80;;
26822;SDS011;14852;51.910;8.878;2022-12-18T01:17:21;23.80;;;15.68;;
26822;SDS011;14852;51.910;8.878;2022-12-18T01:19:47;21.08;;;13.80;;
26822;SDS011;14852;51.910;8.878;2022-12-18T01:22:13;24.88;;;13.68;;
26822;SDS011;14852;51.910;8.878;2022-12-18T01:24:39;22.33;;;12.23;;
26822;SDS011;14852;51.910;8.878;2022-12-18T01:27:04;16.75;;;11.43;;
26822;SDS011;14852;51.910;8.878;2022-12-18T01:29:30;21.35;;;11.98;;
26822;SDS011;14852;51.910;8.878;2022-12-18T01:31:56;23.05;;;13.43;;
26822;SDS011;14852;51.910;8.878;2022-12-18T01:34:23;21.80;;;12.30;;
26822;SDS011;14852;51.910;8.878;2022-12-18T01:36:49;22.92;;;12.77;;
26822;SDS011;14852;51.910;8.878;2022-12-18T01:39:17;19.17;;;12.95;;
26822;SDS011;14852;51.910;8.878;2022-12-18T01:41:43;19.90;;;12.57;;
26822;SDS011;14852;51.910;8.878;2022-12-18T01:47:36;26.20;;;15.20;;
26822;SDS011;14852;51.910;8.878;2022-12-18T01:52:39;21.48;;;12.13;;
26822;SDS011;14852;51.910;8.878;2022-12-18T01:55:16;24.60;;;13.07;;
26822;SDS011;14852;51.910;8.878;2022-12-18T01:57:44;20.48;;;11.95;;
26822;SDS011;14852;51.910;8.878;2022-12-18T02:00:13;23.23;;;13.65;;
26822;SDS011;14852;51.910;8.878;2022-12-18T02:02:44;29.25;;;14.45;;
26822;SDS011;14852;51.910;8.878;2022-12-18T02:05:12;22.73;;;15.10;;
26822;SDS011;14852;51.910;8.878;2022-12-18T02:08:20;20.70;;;10.77;;
26822;SDS011;14852;51.910;8.878;2022-12-18T02:11:08;17.92;;;11.13;;
26822;SDS011;14852;51.910;8.878;2022-12-18T02:17:11;19.67;;;12.40;;
26822;SDS011;14852;51.910;8.878;2022-12-18T02:20:39;23.85;;;13.63;;
26822;SDS011;14852;51.910;8.878;2022-12-18T02:23:24;26.45;;;14.10;;
26822;SDS011;14852;51.910;8.878;2022-12-18T02:26:29;24.40;;;13.27;;
26822;SDS011;14852;51.910;8.878;2022-12-18T02:29:08;20.75;;;12.05;;
26822;SDS011;14852;51.910;8.878;2022-12-18T02:31:43;25.50;;;13.60;;
26822;SDS011;14852;51.910;8.878;2022-12-18T02:34:17;21.80;;;13.30;;
26822;SDS011;14852;51.910;8.878;2022-12-18T02:36:45;24.20;;;13.88;;
26822;SDS011;14852;51.910;8.878;2022-12-18T02:39:14;22.98;;;13.20;;
26822;SDS011;14852;51.910;8.878;2022-12-18T02:41:53;26.42;;;14.68;;
26822;SDS011;14852;51.910;8.878;2022-12-18T02:44:22;20.70;;;13.35;;
26822;SDS011;14852;51.910;8.878;2022-12-18T02:46:49;19.90;;;12.77;;
26822;SDS011;14852;51.910;8.878;2022-12-18T03:00:58;21.10;;;12.43;;
26822;SDS011;14852;51.910;8.878;2022-12-18T03:03:46;21.35;;;11.60;;
26822;SDS011;14852;51.910;8.878;2022-12-18T03:06:24;22.35;;;13.13;;
26822;SDS011;14852;51.910;8.878;2022-12-18T03:09:39;21.58;;;11.77;;
26822;SDS011;14852;51.910;8.878;2022-12-18T03:14:50;20.58;;;10.50;;
26822;SDS011;14852;51.910;8.878;2022-12-18T03:17:20;20.35;;;10.27;;
26822;SDS011;14852;51.910;8.878;2022-12-18T03:19:51;20.30;;;11.82;;
26822;SDS011;14852;51.910;8.878;2022-12-18T03:22:19;14.00;;;9.02;;
26822;SDS011;14852;51.910;8.878;2022-12-18T03:24:49;20.27;;;10.38;;
26822;SDS011;14852;51.910;8.878;2022-12-18T03:27:18;17.75;;;9.82;;
26822;SDS011;14852;51.910;8.878;2022-12-18T03:30:00;22.25;;;11.02;;
26822;SDS011;14852;51.910;8.878;2022-12-18T03:32:38;19.58;;;10.55;;
26822;SDS011;14852;51.910;8.878;2022-12-18T03:35:31;18.08;;;11.95;;
26822;SDS011;14852;51.910;8.878;2022-12-18T03:38:04;17.60;;;9.05;;
26822;SDS011;14852;51.910;8.878;2022-12-18T03:40:35;14.73;;;8.65;;
26822;SDS011;14852;51.910;8.878;2022-12-18T03:46:17;14.10;;;9.80;;
26822;SDS011;14852;51.910;8.878;2022-12-18T03:48:59;15.27;;;8.70;;
26822;SDS011;14852;51.910;8.878;2022-12-18T03:51:39;13.23;;;8.20;;
26822;SDS011;14852;51.910;8.878;2022-12-18T03:54:18;16.48;;;9.43;;
26822;SDS011;14852;51.910;8.878;2022-12-18T03:57:02;18.05;;;8.82;;
26822;SDS011;14852;51.910;8.878;2022-12-18T03:59:35;17.83;;;10.57;;
26822;SDS011;14852;51.910;8.878;2022-12-18T04:02:04;20.33;;;9.50;;
26822;SDS011;14852;51.910;8.878;2022-12-18T04:04:34;19.60;;;10.70;;
26822;SDS011;14852;51.910;8.878;2022-12-18T04:07:04;23.55;;;12.85;;
26822;SDS011;14852;51.910;8.878;2022-12-18T04:09:33;18.10;;;12.88;;
26822;SDS011;14852;51.910;8.878;2022-12-18T04:12:02;17.33;;;10.02;;
26822;SDS011;14852;51.910;8.878;2022-12-18T04:14:28;19.67;;;10.75;;
26822;SDS011;14852;51.910;8.878;2022-12-18T04:16:55;17.73;;;10.43;;
26822;SDS011;14852;51.910;8.878;2022-12-18T04:19:27;13.95;;;9.43;;
26822;SDS011;14852;51.910;8.878;2022-12-18T04:21:53;20.08;;;9.07;;
26822;SDS011;14852;51.910;8.878;2022-12-18T04:24:19;20.55;;;11.07;;
26822;SDS011;14852;51.910;8.878;2022-12-18T04:26:56;17.55;;;10.82;;
26822;SDS011;14852;51.910;8.878;2022-12-18T04:29:26;17.15;;;12.32;;
26822;SDS011;14852;51.910;8.878;2022-12-18T04:31:52;16.95;;;11.30;;
26822;SDS011;14852;51.910;8.878;2022-12-18T04:34:19;20.00;;;12.07;;
26822;SDS011;14852;51.910;8.878;2022-12-18T04:36:49;18.50;;;9.93;;
26822;SDS011;14852;51.910;8.878;2022-12-18T04:39:17;19.15;;;9.90;;
26822;SDS011;14852;51.910;8.878;2022-12-18T04:41:44;19.48;;;8.40;;
26822;SDS011;14852;51.910;8.878;2022-12-18T04:44:11;22.33;;;11.73;;
26822;SDS011;14852;51.910;8.878;2022-12-18T04:46:37;16.08;;;9.52;;
26822;SDS011;14852;51.910;8.878;2022-12-18T04:49:02;12.32;;;9.25;;
26822;SDS011;14852;51.910;8.878;2022-12-18T04:51:28;19.08;;;9.98;;
26822;SDS011;14852;51.910;8.878;2022-12-18T04:53:54;17.83;;;10.45;;
26822;SDS011;14852;51.910;8.878;2022-12-18T04:56:20;19.48;;;9.40;;
26822;SDS011;14852;51.910;8.878;2022-12-18T04:58:46;15.15;;;8.20;;
26822;SDS011;14852;51.910;8.878;2022-12-18T05:01:13;13.50;;;8.88;;
26822;SDS011;14852;51.910;8.878;2022-12-18T05:03:41;17.67;;;8.90;;
26822;SDS011;14852;51.910;8.878;2022-12-18T05:06:07;17.77;;;10.73;;
26822;SDS011;14852;51.910;8.878;2022-12-18T05:08:33;15.43;;;9.00;;
26822;SDS011;14852;51.910;8.878;2022-12-18T05:11:04;12.18;;;8.25;;
26822;SDS011;14852;51.910;8.878;2022-12-18T05:13:33;14.95;;;9.25;;
26822;SDS011;14852;51.910;8.878;2022-12-18T05:16:00;20.75;;;9.13;;
26822;SDS011;14852;51.910;8.878;2022-12-18T05:18:26;16.48;;;8.45;;
26822;SDS011;14852;51.910;8.878;2022-12-18T05:20:53;14.23;;;8.48;;
26822;SDS011;14852;51.910;8.878;2022-12-18T05:23:20;12.85;;;7.90;;
26822;SDS011;14852;51.910;8.878;2022-12-18T05:25:50;17.17;;;9.55;;
26822;SDS011;14852;51.910;8.878;2022-12-18T05:28:17;16.45;;;9.02;;
26822;SDS011;14852;51.910;8.878;2022-12-18T05:30:50;16.52;;;10.02;;
26822;SDS011;14852;51.910;8.878;2022-12-18T05:33:21;11.93;;;8.52;;
26822;SDS011;14852;51.910;8.878;2022-12-18T05:35:52;17.45;;;9.95;;
26822;SDS011;14852;51.910;8.878;2022-12-18T05:38:21;16.23;;;8.60;;
26822;SDS011;14852;51.910;8.878;2022-12-18T05:40:48;13.65;;;8.13;;
26822;SDS011;14852;51.910;8.878;2022-12-18T05:43:16;19.58;;;9.45;;
26822;SDS011;14852;51.910;8.878;2022-12-18T05:45:43;17.55;;;9.98;;
26822;SDS011;14852;51.910;8.878;2022-12-18T05:48:09;13.50;;;7.93;;
26822;SDS011;14852;51.910;8.878;2022-12-18T05:50:39;15.13;;;9.10;;
26822;SDS011;14852;51.910;8.878;2022-12-18T05:53:06;13.00;;;8.30;;
26822;SDS011;14852;51.910;8.878;2022-12-18T05:55:33;14.10;;;8.38;;
26822;SDS011;14852;51.910;8.878;2022-12-18T05:58:04;14.73;;;8.10;;
26822;SDS011;14852;51.910;8.878;2022-12-18T06:00:33;15.23;;;8.23;;
26822;SDS011;14852;51.910;8.878;2022-12-18T06:03:01;17.38;;;8.85;;
26822;SDS011;14852;51.910;8.878;2022-12-18T06:05:27;17.27;;;11.00;;
26822;SDS011;14852;51.910;8.878;2022-12-18T06:07:53;18.92;;;8.35;;
26822;SDS011;14852;51.910;8.878;2022-12-18T06:10:19;14.20;;;8.40;;
26822;SDS011;14852;51.910;8.878;2022-12-18T06:12:45;14.40;;;8.93;;
26822;SDS011;14852;51.910;8.878;2022-12-18T06:15:10;16.20;;;9.50;;
26822;SDS011;14852;51.910;8.878;2022-12-18T06:17:36;16.80;;;8.85;;
26822;SDS011;14852;51.910;8.878;2022-12-18T06:20:03;20.65;;;10.73;;
26822;SDS011;14852;51.910;8.878;2022-12-18T06:22:32;17.02;;;10.15;;
26822;SDS011;14852;51.910;8.878;2022-12-18T06:24:59;15.65;;;9.10;;
26822;SDS011;14852;51.910;8.878;2022-12-18T06:27:26;18.42;;;10.45;;
26822;SDS011;14852;51.910;8.878;2022-12-18T06:29:51;21.00;;;10.70;;
26822;SDS011;14852;51.910;8.878;2022-12-18T06:32:17;17.15;;;9.65;;
26822;SDS011;14852;51.910;8.878;2022-12-18T06:34:43;17.63;;;10.32;;
26822;SDS011;14852;51.910;8.878;2022-12-18T06:37:09;21.45;;;10.73;;
26822;SDS011;14852;51.910;8.878;2022-12-18T06:39:35;18.40;;;10.10;;
26822;SDS011;14852;51.910;8.878;2022-12-18T06:42:00;19.67;;;11.13;;
26822;SDS011;14852;51.910;8.878;2022-12-18T06:44:26;18.08;;;10.18;;
26822;SDS011;14852;51.910;8.878;2022-12-18T06:46:52;19.30;;;10.25;;
26822;SDS011;14852;51.910;8.878;2022-12-18T06:49:18;15.88;;;9.75;;
26822;SDS011;14852;51.910;8.878;2022-12-18T06:51:44;18.83;;;10.73;;
26822;SDS011;14852;51.910;8.878;2022-12-18T06:54:09;21.02;;;11.13;;
26822;SDS011;14852;51.910;8.878;2022-12-18T06:56:35;17.52;;;9.40;;
26822;SDS011;14852;51.910;8.878;2022-12-18T06:59:01;16.33;;;8.43;;
26822;SDS011;14852;51.910;8.878;2022-12-18T07:01:27;17.85;;;9.40;;
26822;SDS011;14852;51.910;8.878;2022-12-18T07:03:53;15.57;;;9.63;;
26822;SDS011;14852;51.910;8.878;2022-12-18T07:06:21;15.50;;;8.73;;
26822;SDS011;14852;51.910;8.878;2022-12-18T07:08:49;15.65;;;11.10;;
26822;SDS011;14852;51.910;8.878;2022-12-18T07:11:16;22.48;;;11.38;;
26822;SDS011;14852;51.910;8.878;2022-12-18T07:13:43;17.80;;;9.90;;
26822;SDS011;14852;51.910;8.878;2022-12-18T07:16:11;18.58;;;9.95;;
26822;SDS011;14852;51.910;8.878;2022-12-18T07:18:39;21.77;;;10.10;;
26822;SDS011;14852;51.910;8.878;2022-12-18T07:21:06;16.88;;;10.15;;
26822;SDS011;14852;51.910;8.878;2022-12-18T07:23:34;20.05;;;11.23;;
26822;SDS011;14852;51.910;8.878;2022-12-18T07:26:02;23.17;;;13.43;;
26822;SDS011;14852;51.910;8.878;2022-12-18T07:28:33;17.30;;;10.35;;
26822;SDS011;14852;51.910;8.878;2022-12-18T07:31:04;16.83;;;11.00;;
26822;SDS011;14852;51.910;8.878;2022-12-18T07:33:32;17.35;;;10.18;;
26822;SDS011;14852;51.910;8.878;2022-12-18T07:35:59;17.30;;;10.77;;
26822;SDS011;14852;51.910;8.878;2022-12-18T07:38:26;18.42;;;11.32;;
26822;SDS011;14852;51.910;8.878;2022-12-18T07:40:52;16.27;;;10.77;;
26822;SDS011;14852;51.910;8.878;2022-12-18T07:43:18;18.13;;;10.68;;
26822;SDS011;14852;51.910;8.878;2022-12-18T07:45:44;18.35;;;10.32;;
26822;SDS011;14852;51.910;8.878;2022-12-18T07:48:09;17.70;;;10.77;;
26822;SDS011;14852;51.910;8.878;2022-12-18T07:50:36;17.88;;;10.40;;
26822;SDS011;14852;51.910;8.878;2022-12-18T07:53:02;18.50;;;10.32;;
26822;SDS011;14852;51.910;8.878;2022-12-18T07:55:30;17.50;;;10.15;;
26822;SDS011;14852;51.910;8.878;2022-12-18T07:57:57;15.38;;;9.80;;
26822;SDS011;14852;51.910;8.878;2022-12-18T08:00:26;17.83;;;10.68;;
26822;SDS011;14852;51.910;8.878;2022-12-18T08:02:52;15.65;;;10.18;;
26822;SDS011;14852;51.910;8.878;2022-12-18T08:05:18;17.60;;;9.77;;
26822;SDS011;14852;51.910;8.878;2022-12-18T08:07:45;15.55;;;9.13;;
26822;SDS011;14852;51.910;8.878;2022-12-18T08:10:12;15.38;;;8.50;;
26822;SDS011;14852;51.910;8.878;2022-12-18T08:12:38;16.50;;;9.65;;
26822;SDS011;14852;51.910;8.878;2022-12-18T08:15:04;15.27;;;9.40;;
26822;SDS011;14852;51.910;8.878;2022-12-18T08:17:31;17.63;;;9.20;;
26822;SDS011;14852;51.910;8.878;2022-12-18T08:19:56;18.55;;;9.05;;
26822;SDS011;14852;51.910;8.878;2022-12-18T08:22:22;15.85;;;8.82;;
26822;SDS011;14852;51.910;8.878;2022-12-18T08:24:48;18.60;;;8.45;;
26822;SDS011;14852;51.910;8.878;2022-12-18T08:27:14;16.27;;;8.73;;
26822;SDS011;14852;51.910;8.878;2022-12-18T08:29:40;12.48;;;8.27;;
26822;SDS011;14852;51.910;8.878;2022-12-18T08:32:05;13.88;;;9.30;;
26822;SDS011;14852;51.910;8.878;2022-12-18T08:34:32;15.70;;;8.13;;
26822;SDS011;14852;51.910;8.878;2022-12-18T08:36:58;14.10;;;8.02;;
26822;SDS011;14852;51.910;8.878;2022-12-18T08:39:23;14.32;;;8.23;;
26822;SDS011;14852;51.910;8.878;2022-12-18T08:41:49;15.80;;;8.93;;
26822;SDS011;14852;51.910;8.878;2022-12-18T08:44:33;16.70;;;9.23;;
26822;SDS011;14852;51.910;8.878;2022-12-18T08:47:02;16.23;;;7.97;;
26822;SDS011;14852;51.910;8.878;2022-12-18T08:49:29;15.80;;;9.35;;
26822;SDS011;14852;51.910;8.878;2022-12-18T08:51:55;15.25;;;8.65;;
26822;SDS011;14852;51.910;8.878;2022-12-18T08:54:24;14.02;;;8.60;;
26822;SDS011;14852;51.910;8.878;2022-12-18T08:56:51;13.13;;;7.35;;
26822;SDS011;14852;51.910;8.878;2022-12-18T08:59:17;12.77;;;7.60;;
26822;SDS011;14852;51.910;8.878;2022-12-18T09:01:44;15.43;;;8.88;;
26822;SDS011;14852;51.910;8.878;2022-12-18T09:04:11;13.57;;;8.15;;
26822;SDS011;14852;51.910;8.878;2022-12-18T09:06:38;13.13;;;8.55;;
26822;SDS011;14852;51.910;8.878;2022-12-18T09:09:04;17.05;;;10.38;;
26822;SDS011;14852;51.910;8.878;2022-12-18T09:11:31;13.38;;;9.13;;
26822;SDS011;14852;51.910;8.878;2022-12-18T09:13:58;16.60;;;9.38;;
26822;SDS011;14852;51.910;8.878;2022-12-18T09:16:26;17.25;;;9.95;;
26822;SDS011;14852;51.910;8.878;2022-12-18T09:18:54;13.98;;;8.07;;
26822;SDS011;14852;51.910;8.878;2022-12-18T09:21:24;14.55;;;7.47;;
26822;SDS011;14852;51.910;8.878;2022-12-18T09:23:54;13.90;;;8.63;;
26822;SDS011;14852;51.910;8.878;2022-12-18T09:26:21;14.93;;;8.13;;
26822;SDS011;14852;51.910;8.878;2022-12-18T09:28:48;14.05;;;7.60;;
26822;SDS011;14852;51.910;8.878;2022-12-18T09:31:15;14.95;;;7.25;;
26822;SDS011;14852;51.910;8.878;2022-12-18T09:33:43;12.27;;;8.52;;
26822;SDS011;14852;51.910;8.878;2022-12-18T09:36:13;13.02;;;8.27;;
26822;SDS011;14852;51.910;8.878;2022-12-18T09:38:41;12.27;;;6.95;;
26822;SDS011;14852;51.910;8.878;2022-12-18T09:44:05;14.52;;;8.43;;
26822;SDS011;14852;51.910;8.878;2022-12-18T09:49:36;11.55;;;7.28;;
26822;SDS011;14852;51.910;8.878;2022-12-18T09:52:15;12.27;;;6.18;;
26822;SDS011;14852;51.910;8.878;2022-12-18T09:55:13;10.70;;;6.45;;
26822;SDS011;14852;51.910;8.878;2022-12-18T09:58:07;10.15;;;5.57;;
26822;SDS011;14852;51.910;8.878;2022-12-18T10:01:00;11.32;;;5.60;;
26822;SDS011;14852;51.910;8.878;2022-12-18T10:03:25;9.70;;;6.70;;
26822;SDS011;14852;51.910;8.878;2022-12-18T10:14:23;13.48;;;7.68;;
26822;SDS011;14852;51.910;8.878;2022-12-18T10:17:31;10.65;;;8.68;;
26822;SDS011;14852;51.910;8.878;2022-12-18T10:20:30;10.85;;;7.97;;
26822;SDS011;14852;51.910;8.878;2022-12-18T10:26:05;14.10;;;7.82;;
26822;SDS011;14852;51.910;8.878;2022-12-18T10:28:36;12.80;;;7.43;;
26822;SDS011;14852;51.910;8.878;2022-12-18T10:31:05;10.52;;;7.45;;
26822;SDS011;14852;51.910;8.878;2022-12-18T10:33:33;14.85;;;9.05;;
26822;SDS011;14852;51.910;8.878;2022-12-18T10:35:59;13.70;;;7.68;;
26822;SDS011;14852;51.910;8.878;2022-12-18T10:38:27;14.52;;;8.10;;
26822;SDS011;14852;51.910;8.878;2022-12-18T10:43:29;9.98;;;7.35;;
26822;SDS011;14852;51.910;8.878;2022-12-18T10:48:36;12.35;;;8.23;;
26822;SDS011;14852;51.910;8.878;2022-12-18T10:54:05;12.15;;;7.85;;
26822;SDS011;14852;51.910;8.878;2022-12-18T10:56:52;12.20;;;6.80;;
26822;SDS011;14852;51.910;8.878;2022-12-18T10:59:53;10.50;;;7.13;;
26822;SDS011;14852;51.910;8.878;2022-12-18T11:02:35;11.88;;;8.40;;
26822;SDS011;14852;51.910;8.878;2022-12-18T11:05:04;13.48;;;7.25;;
26822;SDS011;14852;51.910;8.878;2022-12-18T11:07:54;13.65;;;7.80;;
26822;SDS011;14852;51.910;8.878;2022-12-18T11:10:22;15.02;;;8.55;;
26822;SDS011;14852;51.910;8.878;2022-12-18T11:13:09;12.07;;;7.03;;
26822;SDS011;14852;51.910;8.878;2022-12-18T11:15:43;7.50;;;5.78;;
26822;SDS011;14852;51.910;8.878;2022-12-18T11:18:16;8.90;;;6.22;;
26822;SDS011;14852;51.910;8.878;2022-12-18T11:21:09;10.98;;;6.40;;
26822;SDS011;14852;51.910;8.878;2022-12-18T11:23:37;12.00;;;6.55;;
26822;SDS011;14852;51.910;8.878;2022-12-18T11:26:17;9.98;;;7.80;;
26822;SDS011;14852;51.910;8.878;2022-12-18T11:29:07;11.50;;;6.25;;
26822;SDS011;14852;51.910;8.878;2022-12-18T11:31:35;11.77;;;6.28;;
26822;SDS011;14852;51.910;8.878;2022-12-18T11:34:04;11.43;;;6.95;;
26822;SDS011;14852;51.910;8.878;2022-12-18T11:36:44;11.70;;;6.78;;
26822;SDS011;14852;51.910;8.878;2022-12-18T11:41:54;12.10;;;7.90;;
26822;SDS011;14852;51.910;8.878;2022-12-18T11:47:20;12.52;;;7.63;;
26822;SDS011;14852;51.910;8.878;2022-12-18T11:49:55;13.27;;;8.00;;
26822;SDS011;14852;51.910;8.878;2022-12-18T11:52:47;9.93;;;6.53;;
26822;SDS011;14852;51.910;8.878;2022-12-18T11:55:13;8.68;;;5.82;;
26822;SDS011;14852;51.910;8.878;2022-12-18T12:00:43;9.32;;;6.38;;
26822;SDS011;14852;51.910;8.878;2022-12-18T12:21:47;10.77;;;6.32;;
26822;SDS011;14852;51.910;8.878;2022-12-18T12:27:28;14.02;;;8.07;;
26822;SDS011;14852;51.910;8.878;2022-12-18T12:30:18;10.65;;;7.15;;
26822;SDS011;14852;51.910;8.878;2022-12-18T12:33:00;10.15;;;6.05;;
26822;SDS011;14852;51.910;8.878;2022-12-18T12:39:01;19.77;;;7.72;;
26822;SDS011;14852;51.910;8.878;2022-12-18T12:41:33;9.93;;;6.55;;
26822;SDS011;14852;51.910;8.878;2022-12-18T12:44:21;8.55;;;5.28;;
26822;SDS011;14852;51.910;8.878;2022-12-18T12:47:00;8.30;;;5.40;;
26822;SDS011;14852;51.910;8.878;2022-12-18T12:52:15;9.57;;;6.00;;
26822;SDS011;14852;51.910;8.878;2022-12-18T12:55:02;9.32;;;5.70;;
26822;SDS011;14852;51.910;8.878;2022-12-18T12:57:36;8.45;;;6.05;;
26822;SDS011;14852;51.910;8.878;2022-12-18T13:02:54;9.35;;;5.78;;
26822;SDS011;14852;51.910;8.878;2022-12-18T13:05:26;7.97;;;5.45;;
26822;SDS011;14852;51.910;8.878;2022-12-18T13:08:28;8.25;;;5.70;;
26822;SDS011;14852;51.910;8.878;2022-12-18T13:10:57;7.05;;;5.53;;
26822;SDS011;14852;51.910;8.878;2022-12-18T13:13:49;9.85;;;6.45;;
26822;SDS011;14852;51.910;8.878;2022-12-18T13:16:21;11.20;;;6.32;;
26822;SDS011;14852;51.910;8.878;2022-12-18T13:18:53;9.82;;;5.88;;
26822;SDS011;14852;51.910;8.878;2022-12-18T13:21:30;9.27;;;5.28;;
26822;SDS011;14852;51.910;8.878;2022-12-18T13:24:15;8.63;;;5.15;;
26822;SDS011;14852;51.910;8.878;2022-12-18T13:26:49;9.40;;;6.35;;
26822;SDS011;14852;51.910;8.878;2022-12-18T13:29:41;11.32;;;5.80;;
26822;SDS011;14852;51.910;8.878;2022-12-18T13:32:21;9.43;;;5.70;;
26822;SDS011;14852;51.910;8.878;2022-12-18T13:34:58;10.77;;;6.50;;
26822;SDS011;14852;51.910;8.878;2022-12-18T13:37:52;8.60;;;5.30;;
26822;SDS011;14852;51.910;8.878;2022-12-18T13:43:15;7.50;;;5.35;;
26822;SDS011;14852;51.910;8.878;2022-12-18T13:45:49;9.23;;;5.45;;
26822;SDS011;14852;51.910;8.878;2022-12-18T13:48:36;10.57;;;5.70;;
26822;SDS011;14852;51.910;8.878;2022-12-18T13:51:04;9.30;;;5.88;;
26822;SDS011;14852;51.910;8.878;2022-12-18T13:53:38;12.90;;;6.25;;
26822;SDS011;14852;51.910;8.878;2022-12-18T13:58:39;8.32;;;5.10;;
26822;SDS011;14852;51.910;8.878;2022-12-18T14:01:15;6.45;;;4.80;;
26822;SDS011;14852;51.910;8.878;2022-12-18T14:03:48;6.43;;;4.60;;
26822;SDS011;14852;51.910;8.878;2022-12-18T14:06:16;10.27;;;5.65;;
26822;SDS011;14852;51.910;8.878;2022-12-18T14:08:43;7.72;;;5.00;;
26822;SDS011;14852;51.910;8.878;2022-12-18T14:11:20;9.55;;;5.90;;
26822;SDS011;14852;51.910;8.878;2022-12-18T14:13:48;9.77;;;5.85;;
26822;SDS011;14852;51.910;8.878;2022-12-18T14:16:15;7.93;;;6.40;;
26822;SDS011;14852;51.910;8.878;2022-12-18T14:18:52;9.32;;;6.22;;
26822;SDS011;14852;51.910;8.878;2022-12-18T14:21:30;9.15;;;5.63;;
26822;SDS011;14852;51.910;8.878;2022-12-18T14:24:03;10.02;;;5.45;;
26822;SDS011;14852;51.910;8.878;2022-12-18T14:26:47;9.57;;;6.57;;
26822;SDS011;14852;51.910;8.878;2022-12-18T14:31:50;10.47;;;5.60;;
26822;SDS011;14852;51.910;8.878;2022-12-18T14:34:51;11.48;;;7.30;;
26822;SDS011;14852;51.910;8.878;2022-12-18T14:37:23;10.88;;;6.65;;
26822;SDS011;14852;51.910;8.878;2022-12-18T14:39:55;9.13;;;5.80;;
26822;SDS011;14852;51.910;8.878;2022-12-18T14:42:27;8.98;;;6.15;;
26822;SDS011;14852;51.910;8.878;2022-12-18T14:47:58;8.13;;;5.35;;
26822;SDS011;14852;51.910;8.878;2022-12-18T14:50:25;8.77;;;6.57;;
26822;SDS011;14852;51.910;8.878;2022-12-18T14:52:51;10.38;;;6.70;;
26822;SDS011;14852;51.910;8.878;2022-12-18T14:55:18;12.57;;;6.53;;
26822;SDS011;14852;51.910;8.878;2022-12-18T14:57:48;9.40;;;6.30;;
26822;SDS011;14852;51.910;8.878;2022-12-18T15:00:18;11.43;;;6.65;;
26822;SDS011;14852;51.910;8.878;2022-12-18T15:02:48;11.05;;;6.30;;
26822;SDS011;14852;51.910;8.878;2022-12-18T15:07:54;11.43;;;6.72;;
26822;SDS011;14852;51.910;8.878;2022-12-18T15:10:23;8.43;;;6.25;;
26822;SDS011;14852;51.910;8.878;2022-12-18T15:20:25;10.98;;;5.90;;
26822;SDS011;14852;51.910;8.878;2022-12-18T15:22:51;11.10;;;7.07;;
26822;SDS011;14852;51.910;8.878;2022-12-18T15:25:26;10.30;;;6.88;;
26822;SDS011;14852;51.910;8.878;2022-12-18T15:28:01;12.32;;;7.25;;
26822;SDS011;14852;51.910;8.878;2022-12-18T15:30:28;13.50;;;8.77;;
26822;SDS011;14852;51.910;8.878;2022-12-18T15:35:55;13.38;;;6.80;;
26822;SDS011;14852;51.910;8.878;2022-12-18T15:38:26;12.93;;;6.97;;
26822;SDS011;14852;51.910;8.878;2022-12-18T15:40:53;12.52;;;6.55;;
26822;SDS011;14852;51.910;8.878;2022-12-18T15:43:22;9.48;;;6.78;;
26822;SDS011;14852;51.910;8.878;2022-12-18T15:48:34;10.23;;;6.77;;
26822;SDS011;14852;51.910;8.878;2022-12-18T15:51:07;11.40;;;7.30;;
26822;SDS011;14852;51.910;8.878;2022-12-18T15:54:05;11.05;;;6.72;;
26822;SDS011;14852;51.910;8.878;2022-12-18T15:56:36;12.68;;;7.07;;
26822;SDS011;14852;51.910;8.878;2022-12-18T15:59:21;14.52;;;7.45;;
26822;SDS011;14852;51.910;8.878;2022-12-18T16:01:48;11.40;;;7.05;;
26822;SDS011;14852;51.910;8.878;2022-12-18T16:04:17;11.75;;;7.25;;
26822;SDS011;14852;51.910;8.878;2022-12-18T16:06:45;14.07;;;7.45;;
26822;SDS011;14852;51.910;8.878;2022-12-18T16:09:12;10.75;;;8.15;;
26822;SDS011;14852;51.910;8.878;2022-12-18T16:11:37;12.43;;;7.32;;
26822;SDS011;14852;51.910;8.878;2022-12-18T16:14:17;13.45;;;9.07;;
26822;SDS011;14852;51.910;8.878;2022-12-18T16:16:52;10.25;;;7.15;;
26822;SDS011;14852;51.910;8.878;2022-12-18T16:19:20;14.63;;;8.27;;
26822;SDS011;14852;51.910;8.878;2022-12-18T16:21:46;11.98;;;6.80;;
26822;SDS011;14852;51.910;8.878;2022-12-18T16:24:19;13.55;;;8.40;;
26822;SDS011;14852;51.910;8.878;2022-12-18T16:26:51;10.73;;;7.53;;
26822;SDS011;14852;51.910;8.878;2022-12-18T16:29:18;12.93;;;8.07;;
26822;SDS011;14852;51.910;8.878;2022-12-18T16:31:49;9.63;;;6.50;;
26822;SDS011;14852;51.910;8.878;2022-12-18T16:34:20;13.10;;;8.00;;
26822;SDS011;14852;51.910;8.878;2022-12-18T16:36:56;13.82;;;7.95;;
26822;SDS011;14852;51.910;8.878;2022-12-18T16:39:27;13.00;;;8.05;;
26822;SDS011;14852;51.910;8.878;2022-12-18T16:41:55;15.75;;;8.70;;
26822;SDS011;14852;51.910;8.878;2022-12-18T16:44:21;10.93;;;7.40;;
26822;SDS011;14852;51.910;8.878;2022-12-18T16:46:47;11.07;;;7.50;;
26822;SDS011;14852;51.910;8.878;2022-12-18T16:49:16;12.75;;;7.40;;
26822;SDS011;14852;51.910;8.878;2022-12-18T16:51:45;13.18;;;8.50;;
26822;SDS011;14852;51.910;8.878;2022-12-18T16:54:11;13.13;;;7.70;;